sensor_id;sensor_type;location;lat;lon;timestamp;temperature;humidity
45012;DHT22;63444;48.148;11.542;2024-03-08T00:00:06;3.00;99.90
45012;DHT22;63444;48.148;11.542;2024-03-08T00:02:38;2.90;99.90
45012;DHT22;63444;48.148;11.542;2024-03-08T00:05:05;2.90;99.90
45012;DHT22;63444;48.148;11.542;2024-03-08T00:07:31;2.90;99.90
45012;DHT22;63444;48.148;11.542;2024-03-08T00:09:57;2.90;99.90
45012;DHT22;63444;48.148;11.542;2024-03-08T00:12:22;2.80;99.90
45012;DHT22;63444;48.148;11.542;2024-03-08T00:14:49;2.80;99.90
45012;DHT22;63444;48.148;11.542;2024-03-08T00:17:14;2.70;99.90
45012;DHT22;63444;48.148;11.542;2024-03-08T00:19:41;2.70;99.90
45012;DHT22;63444;48.148;11.542;2024-03-08T00:22:07;2.70;99.90
45012;DHT22;63444;48.148;11.542;2024-03-08T00:24:33;2.70;99.90
45012;DHT22;63444;48.148;11.542;2024-03-08T00:26:59;2.70;99.90
45012;DHT22;63444;48.148;11.542;2024-03-08T00:29:24;2.70;99.90
45012;DHT22;63444;48.148;11.542;2024-03-08T00:31:50;2.60;99.90
45012;DHT22;63444;48.148;11.542;2024-03-08T00:34:16;2.60;99.90
45012;DHT22;63444;48.148;11.542;2024-03-08T00:36:41;2.70;99.90
45012;DHT22;63444;48.148;11.542;2024-03-08T00:39:07;2.60;99.90
45012;DHT22;63444;48.148;11.542;2024-03-08T00:41:33;2.60;99.90
45012;DHT22;63444;48.148;11.542;2024-03-08T00:43:59;2.50;99.90
45012;DHT22;63444;48.148;11.542;2024-03-08T00:46:24;2.50;99.90
45012;DHT22;63444;48.148;11.542;2024-03-08T00:48:50;2.50;99.90
45012;DHT22;63444;48.148;11.542;2024-03-08T00:51:16;2.50;99.90
45012;DHT22;63444;48.148;11.542;2024-03-08T00:53:42;2.50;99.90
45012;DHT22;63444;48.148;11.542;2024-03-08T00:56:08;2.50;99.90
45012;DHT22;63444;48.148;11.542;2024-03-08T00:58:38;2.50;99.90
45012;DHT22;63444;48.148;11.542;2024-03-08T01:01:04;2.50;99.90
45012;DHT22;63444;48.148;11.542;2024-03-08T01:03:31;2.40;99.90
45012;DHT22;63444;48.148;11.542;2024-03-08T01:06:00;2.50;99.90
45012;DHT22;63444;48.148;11.542;2024-03-08T01:08:30;2.40;99.90
45012;DHT22;63444;48.148;11.542;2024-03-08T01:10:55;2.40;99.90
45012;DHT22;63444;48.148;11.542;2024-03-08T01:13:21;2.40;99.90
45012;DHT22;63444;48.148;11.542;2024-03-08T01:15:47;2.40;99.90
45012;DHT22;63444;48.148;11.542;2024-03-08T01:18:12;2.40;99.90
45012;DHT22;63444;48.148;11.542;2024-03-08T01:20:38;2.40;99.90
45012;DHT22;63444;48.148;11.542;2024-03-08T01:23:05;2.40;99.90
45012;DHT22;63444;48.148;11.542;2024-03-08T01:25:35;2.40;99.90
45012;DHT22;63444;48.148;11.542;2024-03-08T01:28:01;2.40;99.90
45012;DHT22;63444;48.148;11.542;2024-03-08T01:30:27;2.40;99.90
45012;DHT22;63444;48.148;11.542;2024-03-08T01:32:53;2.40;99.90
45012;DHT22;63444;48.148;11.542;2024-03-08T01:35:19;2.40;99.90
45012;DHT22;63444;48.148;11.542;2024-03-08T01:37:47;2.30;99.90
45012;DHT22;63444;48.148;11.542;2024-03-08T01:40:15;2.30;99.90
45012;DHT22;63444;48.148;11.542;2024-03-08T01:42:42;2.20;99.90
45012;DHT22;63444;48.148;11.542;2024-03-08T01:45:08;2.20;99.90
45012;DHT22;63444;48.148;11.542;2024-03-08T01:47:35;2.20;99.90
45012;DHT22;63444;48.148;11.542;2024-03-08T01:50:01;2.20;99.90
45012;DHT22;63444;48.148;11.542;2024-03-08T01:52:32;2.20;99.90
45012;DHT22;63444;48.148;11.542;2024-03-08T01:55:02;2.10;99.90
45012;DHT22;63444;48.148;11.542;2024-03-08T01:57:31;2.10;99.90
45012;DHT22;63444;48.148;11.542;2024-03-08T01:59:59;2.00;99.90
45012;DHT22;63444;48.148;11.542;2024-03-08T02:02:34;2.00;99.90
45012;DHT22;63444;48.148;11.542;2024-03-08T02:05:02;2.00;99.90
45012;DHT22;63444;48.148;11.542;2024-03-08T02:07:28;2.00;99.90
45012;DHT22;63444;48.148;11.542;2024-03-08T02:09:54;2.10;99.90
45012;DHT22;63444;48.148;11.542;2024-03-08T02:12:20;2.10;99.90
45012;DHT22;63444;48.148;11.542;2024-03-08T02:14:46;2.00;99.90
45012;DHT22;63444;48.148;11.542;2024-03-08T02:17:12;2.10;99.90
45012;DHT22;63444;48.148;11.542;2024-03-08T02:19:38;2.00;99.90
45012;DHT22;63444;48.148;11.542;2024-03-08T02:22:04;2.00;99.90
45012;DHT22;63444;48.148;11.542;2024-03-08T02:24:31;2.00;99.90
45012;DHT22;63444;48.148;11.542;2024-03-08T02:26:57;2.00;99.90
45012;DHT22;63444;48.148;11.542;2024-03-08T02:29:23;1.90;99.90
45012;DHT22;63444;48.148;11.542;2024-03-08T02:31:51;2.00;99.90
45012;DHT22;63444;48.148;11.542;2024-03-08T02:34:17;1.90;99.90
45012;DHT22;63444;48.148;11.542;2024-03-08T02:36:42;2.00;99.90
45012;DHT22;63444;48.148;11.542;2024-03-08T02:39:08;2.00;99.90
45012;DHT22;63444;48.148;11.542;2024-03-08T02:41:36;2.00;99.90
45012;DHT22;63444;48.148;11.542;2024-03-08T02:44:02;2.00;99.90
45012;DHT22;63444;48.148;11.542;2024-03-08T02:46:27;2.00;99.90
45012;DHT22;63444;48.148;11.542;2024-03-08T02:48:53;2.00;99.90
45012;DHT22;63444;48.148;11.542;2024-03-08T02:51:19;2.00;99.90
45012;DHT22;63444;48.148;11.542;2024-03-08T02:53:45;1.90;99.90
45012;DHT22;63444;48.148;11.542;2024-03-08T02:56:14;2.00;99.90
45012;DHT22;63444;48.148;11.542;2024-03-08T02:58:42;1.90;99.90
45012;DHT22;63444;48.148;11.542;2024-03-08T03:01:08;1.90;99.90
45012;DHT22;63444;48.148;11.542;2024-03-08T03:03:35;1.90;99.90
45012;DHT22;63444;48.148;11.542;2024-03-08T03:06:01;1.90;99.90
45012;DHT22;63444;48.148;11.542;2024-03-08T03:08:27;1.90;99.90
45012;DHT22;63444;48.148;11.542;2024-03-08T03:10:52;1.90;99.90
45012;DHT22;63444;48.148;11.542;2024-03-08T03:13:18;1.90;99.90
45012;DHT22;63444;48.148;11.542;2024-03-08T03:15:46;1.90;99.90
45012;DHT22;63444;48.148;11.542;2024-03-08T03:18:12;1.90;99.90
45012;DHT22;63444;48.148;11.542;2024-03-08T03:20:37;1.80;99.90
45012;DHT22;63444;48.148;11.542;2024-03-08T03:23:06;1.80;99.90
45012;DHT22;63444;48.148;11.542;2024-03-08T03:25:34;1.80;99.90
45012;DHT22;63444;48.148;11.542;2024-03-08T03:28:03;1.80;99.90
45012;DHT22;63444;48.148;11.542;2024-03-08T03:30:30;1.80;99.90
45012;DHT22;63444;48.148;11.542;2024-03-08T03:33:02;1.80;99.90
45012;DHT22;63444;48.148;11.542;2024-03-08T03:35:32;1.80;99.90
45012;DHT22;63444;48.148;11.542;2024-03-08T03:37:58;1.80;99.90
45012;DHT22;63444;48.148;11.542;2024-03-08T03:40:28;1.80;99.90
45012;DHT22;63444;48.148;11.542;2024-03-08T03:42:54;1.70;99.90
45012;DHT22;63444;48.148;11.542;2024-03-08T03:45:20;1.70;99.90
45012;DHT22;63444;48.148;11.542;2024-03-08T03:47:46;1.70;99.90
45012;DHT22;63444;48.148;11.542;2024-03-08T03:50:12;1.70;99.90
45012;DHT22;63444;48.148;11.542;2024-03-08T03:52:37;1.70;99.90
45012;DHT22;63444;48.148;11.542;2024-03-08T03:55:04;1.70;99.90
45012;DHT22;63444;48.148;11.542;2024-03-08T03:57:30;1.70;99.90
45012;DHT22;63444;48.148;11.542;2024-03-08T03:59:56;1.70;99.90
45012;DHT22;63444;48.148;11.542;2024-03-08T04:02:24;1.70;99.90
45012;DHT22;63444;48.148;11.542;2024-03-08T04:04:54;1.60;99.90
45012;DHT22;63444;48.148;11.542;2024-03-08T04:07:20;1.60;99.90
45012;DHT22;63444;48.148;11.542;2024-03-08T04:09:46;1.60;99.90
45012;DHT22;63444;48.148;11.542;2024-03-08T04:12:12;1.60;99.90
45012;DHT22;63444;48.148;11.542;2024-03-08T04:14:41;1.60;99.90
45012;DHT22;63444;48.148;11.542;2024-03-08T04:17:07;1.60;99.90
45012;DHT22;63444;48.148;11.542;2024-03-08T04:19:34;1.60;99.90
45012;DHT22;63444;48.148;11.542;2024-03-08T04:22:01;1.60;99.90
45012;DHT22;63444;48.148;11.542;2024-03-08T04:24:27;1.50;99.90
45012;DHT22;63444;48.148;11.542;2024-03-08T04:26:53;1.50;99.90
45012;DHT22;63444;48.148;11.542;2024-03-08T04:29:19;1.50;99.90
45012;DHT22;63444;48.148;11.542;2024-03-08T04:31:44;1.50;99.90
45012;DHT22;63444;48.148;11.542;2024-03-08T04:34:11;1.40;99.90
45012;DHT22;63444;48.148;11.542;2024-03-08T04:36:36;1.40;99.90
45012;DHT22;63444;48.148;11.542;2024-03-08T04:39:02;1.50;99.90
45012;DHT22;63444;48.148;11.542;2024-03-08T04:41:28;1.40;99.90
45012;DHT22;63444;48.148;11.542;2024-03-08T04:43:56;1.40;99.90
45012;DHT22;63444;48.148;11.542;2024-03-08T04:46:23;1.50;99.90
45012;DHT22;63444;48.148;11.542;2024-03-08T04:48:49;1.40;99.90
45012;DHT22;63444;48.148;11.542;2024-03-08T04:51:15;1.40;99.90
45012;DHT22;63444;48.148;11.542;2024-03-08T04:53:41;1.40;99.90
45012;DHT22;63444;48.148;11.542;2024-03-08T04:56:07;1.40;99.90
45012;DHT22;63444;48.148;11.542;2024-03-08T04:58:36;1.40;99.90
45012;DHT22;63444;48.148;11.542;2024-03-08T05:01:02;1.40;99.90
45012;DHT22;63444;48.148;11.542;2024-03-08T05:03:28;1.40;99.90
45012;DHT22;63444;48.148;11.542;2024-03-08T05:05:55;1.40;99.90
45012;DHT22;63444;48.148;11.542;2024-03-08T05:08:21;1.40;99.90
45012;DHT22;63444;48.148;11.542;2024-03-08T05:10:47;1.40;99.90
45012;DHT22;63444;48.148;11.542;2024-03-08T05:13:13;1.50;99.90
45012;DHT22;63444;48.148;11.542;2024-03-08T05:15:38;1.50;99.90
45012;DHT22;63444;48.148;11.542;2024-03-08T05:18:05;1.50;99.90
45012;DHT22;63444;48.148;11.542;2024-03-08T05:20:30;1.50;99.90
45012;DHT22;63444;48.148;11.542;2024-03-08T05:22:56;1.50;99.90
45012;DHT22;63444;48.148;11.542;2024-03-08T05:25:25;1.40;99.90
45012;DHT22;63444;48.148;11.542;2024-03-08T05:27:52;1.40;99.90
45012;DHT22;63444;48.148;11.542;2024-03-08T05:30:18;1.40;99.90
45012;DHT22;63444;48.148;11.542;2024-03-08T05:32:43;1.40;99.90
45012;DHT22;63444;48.148;11.542;2024-03-08T05:35:12;1.40;99.90
45012;DHT22;63444;48.148;11.542;2024-03-08T05:37:38;1.40;99.90
45012;DHT22;63444;48.148;11.542;2024-03-08T05:40:08;1.40;99.90
45012;DHT22;63444;48.148;11.542;2024-03-08T05:42:36;1.40;99.90
45012;DHT22;63444;48.148;11.542;2024-03-08T05:45:06;1.40;99.90
45012;DHT22;63444;48.148;11.542;2024-03-08T05:47:32;1.40;99.90
45012;DHT22;63444;48.148;11.542;2024-03-08T05:50:01;1.40;99.90
45012;DHT22;63444;48.148;11.542;2024-03-08T05:52:27;1.30;99.90
45012;DHT22;63444;48.148;11.542;2024-03-08T05:54:53;1.30;99.90
45012;DHT22;63444;48.148;11.542;2024-03-08T05:57:18;1.30;99.90
45012;DHT22;63444;48.148;11.542;2024-03-08T05:59:44;1.30;99.90
45012;DHT22;63444;48.148;11.542;2024-03-08T06:02:10;1.30;99.90
45012;DHT22;63444;48.148;11.542;2024-03-08T06:04:35;1.30;99.90
45012;DHT22;63444;48.148;11.542;2024-03-08T06:07:01;1.40;99.90
45012;DHT22;63444;48.148;11.542;2024-03-08T06:09:29;1.40;99.90
45012;DHT22;63444;48.148;11.542;2024-03-08T06:11:55;1.40;99.90
45012;DHT22;63444;48.148;11.542;2024-03-08T06:14:22;1.40;99.90
45012;DHT22;63444;48.148;11.542;2024-03-08T06:16:48;1.40;99.90
45012;DHT22;63444;48.148;11.542;2024-03-08T06:19:15;1.50;99.90
45012;DHT22;63444;48.148;11.542;2024-03-08T06:21:41;1.40;99.90
45012;DHT22;63444;48.148;11.542;2024-03-08T06:24:07;1.40;99.90
45012;DHT22;63444;48.148;11.542;2024-03-08T06:26:32;1.40;99.90
45012;DHT22;63444;48.148;11.542;2024-03-08T06:28:58;1.40;99.90
45012;DHT22;63444;48.148;11.542;2024-03-08T06:31:24;1.40;99.90
45012;DHT22;63444;48.148;11.542;2024-03-08T06:33:49;1.50;99.90
45012;DHT22;63444;48.148;11.542;2024-03-08T06:36:18;1.50;99.90
45012;DHT22;63444;48.148;11.542;2024-03-08T06:38:45;1.50;99.90
45012;DHT22;63444;48.148;11.542;2024-03-08T06:41:11;1.60;99.90
45012;DHT22;63444;48.148;11.542;2024-03-08T06:43:45;1.70;99.90
45012;DHT22;63444;48.148;11.542;2024-03-08T06:46:11;1.70;99.90
45012;DHT22;63444;48.148;11.542;2024-03-08T06:48:39;1.70;99.90
45012;DHT22;63444;48.148;11.542;2024-03-08T06:51:05;1.80;99.90
45012;DHT22;63444;48.148;11.542;2024-03-08T06:53:31;1.80;99.90
45012;DHT22;63444;48.148;11.542;2024-03-08T06:56:01;1.80;99.90
45012;DHT22;63444;48.148;11.542;2024-03-08T06:58:27;1.80;99.90
45012;DHT22;63444;48.148;11.542;2024-03-08T07:00:53;1.80;99.90
45012;DHT22;63444;48.148;11.542;2024-03-08T07:03:19;1.90;99.90
45012;DHT22;63444;48.148;11.542;2024-03-08T07:05:47;1.90;99.90
45012;DHT22;63444;48.148;11.542;2024-03-08T07:08:13;1.90;99.90
45012;DHT22;63444;48.148;11.542;2024-03-08T07:10:40;1.90;99.90
45012;DHT22;63444;48.148;11.542;2024-03-08T07:13:07;1.90;99.90
45012;DHT22;63444;48.148;11.542;2024-03-08T07:15:33;1.90;99.90
45012;DHT22;63444;48.148;11.542;2024-03-08T07:17:59;2.00;99.90
45012;DHT22;63444;48.148;11.542;2024-03-08T07:20:25;1.90;99.90
45012;DHT22;63444;48.148;11.542;2024-03-08T07:22:51;1.90;99.90
45012;DHT22;63444;48.148;11.542;2024-03-08T07:25:17;1.90;99.90
45012;DHT22;63444;48.148;11.542;2024-03-08T07:27:55;1.90;99.90
45012;DHT22;63444;48.148;11.542;2024-03-08T07:30:25;1.90;99.90
45012;DHT22;63444;48.148;11.542;2024-03-08T07:33:09;1.90;99.90
45012;DHT22;63444;48.148;11.542;2024-03-08T07:35:39;1.90;99.90
45012;DHT22;63444;48.148;11.542;2024-03-08T07:38:06;1.90;99.90
45012;DHT22;63444;48.148;11.542;2024-03-08T07:40:36;1.90;99.90
45012;DHT22;63444;48.148;11.542;2024-03-08T07:43:04;1.90;99.90
45012;DHT22;63444;48.148;11.542;2024-03-08T07:45:30;1.90;99.90
45012;DHT22;63444;48.148;11.542;2024-03-08T07:47:56;2.00;99.90
45012;DHT22;63444;48.148;11.542;2024-03-08T07:50:22;2.00;99.90
45012;DHT22;63444;48.148;11.542;2024-03-08T07:52:48;2.10;99.90
45012;DHT22;63444;48.148;11.542;2024-03-08T07:55:13;2.10;99.90
45012;DHT22;63444;48.148;11.542;2024-03-08T07:57:40;2.20;99.90
45012;DHT22;63444;48.148;11.542;2024-03-08T08:00:06;2.30;99.90
45012;DHT22;63444;48.148;11.542;2024-03-08T08:02:36;2.30;99.90
45012;DHT22;63444;48.148;11.542;2024-03-08T08:05:02;2.40;99.90
45012;DHT22;63444;48.148;11.542;2024-03-08T08:07:29;2.50;99.90
45012;DHT22;63444;48.148;11.542;2024-03-08T08:09:54;2.60;99.90
45012;DHT22;63444;48.148;11.542;2024-03-08T08:12:20;2.70;99.90
45012;DHT22;63444;48.148;11.542;2024-03-08T08:14:46;2.80;99.90
45012;DHT22;63444;48.148;11.542;2024-03-08T08:17:12;3.00;99.90
45012;DHT22;63444;48.148;11.542;2024-03-08T08:19:40;3.00;99.90
45012;DHT22;63444;48.148;11.542;2024-03-08T08:22:06;3.10;99.90
45012;DHT22;63444;48.148;11.542;2024-03-08T08:24:34;3.10;99.90
45012;DHT22;63444;48.148;11.542;2024-03-08T08:26:59;3.10;99.90
45012;DHT22;63444;48.148;11.542;2024-03-08T08:29:26;3.20;99.90
45012;DHT22;63444;48.148;11.542;2024-03-08T08:31:51;3.20;99.90
45012;DHT22;63444;48.148;11.542;2024-03-08T08:34:18;3.30;99.90
45012;DHT22;63444;48.148;11.542;2024-03-08T08:36:44;3.40;99.90
45012;DHT22;63444;48.148;11.542;2024-03-08T08:39:10;3.50;99.90
45012;DHT22;63444;48.148;11.542;2024-03-08T08:41:42;3.60;99.90
45012;DHT22;63444;48.148;11.542;2024-03-08T08:44:07;3.70;99.90
45012;DHT22;63444;48.148;11.542;2024-03-08T08:46:38;3.90;99.90
45012;DHT22;63444;48.148;11.542;2024-03-08T08:49:05;4.10;99.90
45012;DHT22;63444;48.148;11.542;2024-03-08T08:51:32;4.30;99.90
45012;DHT22;63444;48.148;11.542;2024-03-08T08:53:59;4.50;99.90
45012;DHT22;63444;48.148;11.542;2024-03-08T08:56:25;4.70;99.90
45012;DHT22;63444;48.148;11.542;2024-03-08T08:58:51;4.90;99.90
45012;DHT22;63444;48.148;11.542;2024-03-08T09:01:19;5.10;99.90
45012;DHT22;63444;48.148;11.542;2024-03-08T09:03:45;5.20;99.90
45012;DHT22;63444;48.148;11.542;2024-03-08T09:06:12;5.30;99.90
45012;DHT22;63444;48.148;11.542;2024-03-08T09:08:41;5.40;99.90
45012;DHT22;63444;48.148;11.542;2024-03-08T09:11:07;5.60;99.90
45012;DHT22;63444;48.148;11.542;2024-03-08T09:13:33;5.70;99.90
45012;DHT22;63444;48.148;11.542;2024-03-08T09:16:04;5.80;99.90
45012;DHT22;63444;48.148;11.542;2024-03-08T09:18:32;5.90;99.90
45012;DHT22;63444;48.148;11.542;2024-03-08T09:21:00;6.00;99.90
45012;DHT22;63444;48.148;11.542;2024-03-08T09:23:26;6.20;99.90
45012;DHT22;63444;48.148;11.542;2024-03-08T09:25:56;6.30;99.90
45012;DHT22;63444;48.148;11.542;2024-03-08T09:28:23;6.40;99.90
45012;DHT22;63444;48.148;11.542;2024-03-08T09:30:49;6.50;99.90
45012;DHT22;63444;48.148;11.542;2024-03-08T09:33:14;6.60;99.90
45012;DHT22;63444;48.148;11.542;2024-03-08T09:35:45;6.70;99.90
45012;DHT22;63444;48.148;11.542;2024-03-08T09:38:12;6.80;99.90
45012;DHT22;63444;48.148;11.542;2024-03-08T09:40:41;6.90;99.90
45012;DHT22;63444;48.148;11.542;2024-03-08T09:43:06;7.00;99.90
45012;DHT22;63444;48.148;11.542;2024-03-08T09:45:36;7.20;99.90
45012;DHT22;63444;48.148;11.542;2024-03-08T09:48:05;7.40;99.90
45012;DHT22;63444;48.148;11.542;2024-03-08T09:50:31;7.50;99.90
45012;DHT22;63444;48.148;11.542;2024-03-08T09:52:58;7.50;99.90
45012;DHT22;63444;48.148;11.542;2024-03-08T09:55:25;7.60;99.90
45012;DHT22;63444;48.148;11.542;2024-03-08T09:57:54;7.60;99.90
45012;DHT22;63444;48.148;11.542;2024-03-08T10:00:43;7.70;99.90
45012;DHT22;63444;48.148;11.542;2024-03-08T10:03:08;8.00;99.90
45012;DHT22;63444;48.148;11.542;2024-03-08T10:05:34;8.00;99.90
45012;DHT22;63444;48.148;11.542;2024-03-08T10:08:00;8.00;99.90
45012;DHT22;63444;48.148;11.542;2024-03-08T10:10:26;8.10;99.90
45012;DHT22;63444;48.148;11.542;2024-03-08T10:12:52;8.20;99.90
45012;DHT22;63444;48.148;11.542;2024-03-08T10:15:17;8.30;99.90
45012;DHT22;63444;48.148;11.542;2024-03-08T10:17:43;8.40;99.90
45012;DHT22;63444;48.148;11.542;2024-03-08T10:20:18;8.60;99.90
45012;DHT22;63444;48.148;11.542;2024-03-08T10:22:44;8.60;99.90
45012;DHT22;63444;48.148;11.542;2024-03-08T10:25:11;8.70;99.90
45012;DHT22;63444;48.148;11.542;2024-03-08T10:27:40;8.70;99.90
45012;DHT22;63444;48.148;11.542;2024-03-08T10:30:17;8.70;99.90
45012;DHT22;63444;48.148;11.542;2024-03-08T10:32:45;8.70;99.90
45012;DHT22;63444;48.148;11.542;2024-03-08T10:35:12;8.80;99.90
45012;DHT22;63444;48.148;11.542;2024-03-08T10:37:51;8.80;99.90
45012;DHT22;63444;48.148;11.542;2024-03-08T10:40:26;8.90;99.90
45012;DHT22;63444;48.148;11.542;2024-03-08T10:42:53;8.90;99.90
45012;DHT22;63444;48.148;11.542;2024-03-08T10:48:29;9.00;99.90
45012;DHT22;63444;48.148;11.542;2024-03-08T10:51:04;9.10;99.90
45012;DHT22;63444;48.148;11.542;2024-03-08T10:53:30;9.10;99.90
45012;DHT22;63444;48.148;11.542;2024-03-08T10:55:59;9.20;99.90
45012;DHT22;63444;48.148;11.542;2024-03-08T10:58:26;9.20;99.90
45012;DHT22;63444;48.148;11.542;2024-03-08T11:00:56;9.20;99.90
45012;DHT22;63444;48.148;11.542;2024-03-08T11:06:17;9.30;99.90
45012;DHT22;63444;48.148;11.542;2024-03-08T11:08:45;9.40;99.90
45012;DHT22;63444;48.148;11.542;2024-03-08T11:11:40;9.50;99.90
45012;DHT22;63444;48.148;11.542;2024-03-08T11:14:43;9.50;99.90
45012;DHT22;63444;48.148;11.542;2024-03-08T11:17:10;9.50;99.90
45012;DHT22;63444;48.148;11.542;2024-03-08T11:19:36;9.60;99.90
45012;DHT22;63444;48.148;11.542;2024-03-08T11:22:03;9.70;99.90
45012;DHT22;63444;48.148;11.542;2024-03-08T11:24:37;9.70;99.90
45012;DHT22;63444;48.148;11.542;2024-03-08T11:27:06;9.80;99.90
45012;DHT22;63444;48.148;11.542;2024-03-08T11:29:33;9.80;99.90
45012;DHT22;63444;48.148;11.542;2024-03-08T11:34:46;9.80;99.90
45012;DHT22;63444;48.148;11.542;2024-03-08T11:37:22;9.80;99.90
45012;DHT22;63444;48.148;11.542;2024-03-08T11:39:48;9.80;99.90
45012;DHT22;63444;48.148;11.542;2024-03-08T11:42:15;10.00;99.90
45012;DHT22;63444;48.148;11.542;2024-03-08T11:44:47;10.10;99.90
45012;DHT22;63444;48.148;11.542;2024-03-08T11:47:14;10.10;99.90
45012;DHT22;63444;48.148;11.542;2024-03-08T11:49:40;10.20;99.90
45012;DHT22;63444;48.148;11.542;2024-03-08T11:52:16;10.20;99.90
45012;DHT22;63444;48.148;11.542;2024-03-08T11:54:52;10.20;99.90
45012;DHT22;63444;48.148;11.542;2024-03-08T11:57:23;10.20;99.90
45012;DHT22;63444;48.148;11.542;2024-03-08T11:59:53;10.10;99.90
45012;DHT22;63444;48.148;11.542;2024-03-08T12:02:19;10.10;99.90
45012;DHT22;63444;48.148;11.542;2024-03-08T12:04:45;10.00;99.90
45012;DHT22;63444;48.148;11.542;2024-03-08T12:07:14;10.00;99.90
45012;DHT22;63444;48.148;11.542;2024-03-08T12:09:44;10.10;99.90
45012;DHT22;63444;48.148;11.542;2024-03-08T12:12:30;10.10;99.90
45012;DHT22;63444;48.148;11.542;2024-03-08T12:14:57;10.20;99.90
45012;DHT22;63444;48.148;11.542;2024-03-08T12:17:23;10.20;99.90
45012;DHT22;63444;48.148;11.542;2024-03-08T12:19:49;10.10;99.90
45012;DHT22;63444;48.148;11.542;2024-03-08T12:22:15;10.10;99.90
45012;DHT22;63444;48.148;11.542;2024-03-08T12:24:41;10.20;99.90
45012;DHT22;63444;48.148;11.542;2024-03-08T12:27:20;10.30;99.90
45012;DHT22;63444;48.148;11.542;2024-03-08T12:29:46;10.20;99.90
45012;DHT22;63444;48.148;11.542;2024-03-08T12:32:12;10.20;99.90
45012;DHT22;63444;48.148;11.542;2024-03-08T12:34:38;10.20;99.90
45012;DHT22;63444;48.148;11.542;2024-03-08T12:37:03;10.20;99.90
45012;DHT22;63444;48.148;11.542;2024-03-08T12:39:32;10.10;99.90
45012;DHT22;63444;48.148;11.542;2024-03-08T12:41:58;10.10;99.90
45012;DHT22;63444;48.148;11.542;2024-03-08T12:44:25;10.10;99.90
45012;DHT22;63444;48.148;11.542;2024-03-08T12:46:51;10.00;99.90
45012;DHT22;63444;48.148;11.542;2024-03-08T12:49:19;10.00;99.90
45012;DHT22;63444;48.148;11.542;2024-03-08T12:51:47;10.00;99.90
45012;DHT22;63444;48.148;11.542;2024-03-08T12:54:13;9.90;99.90
45012;DHT22;63444;48.148;11.542;2024-03-08T12:56:39;9.90;99.90
45012;DHT22;63444;48.148;11.542;2024-03-08T12:59:06;9.90;99.90
45012;DHT22;63444;48.148;11.542;2024-03-08T13:01:35;9.90;99.90
45012;DHT22;63444;48.148;11.542;2024-03-08T13:04:03;9.90;99.90
45012;DHT22;63444;48.148;11.542;2024-03-08T13:06:29;9.90;99.90
45012;DHT22;63444;48.148;11.542;2024-03-08T13:08:56;10.00;99.90
45012;DHT22;63444;48.148;11.542;2024-03-08T13:11:24;10.00;99.90
45012;DHT22;63444;48.148;11.542;2024-03-08T13:13:50;10.00;99.90
45012;DHT22;63444;48.148;11.542;2024-03-08T13:16:16;9.90;99.90
45012;DHT22;63444;48.148;11.542;2024-03-08T13:18:44;9.90;99.90
45012;DHT22;63444;48.148;11.542;2024-03-08T13:21:10;9.80;99.90
45012;DHT22;63444;48.148;11.542;2024-03-08T13:23:39;9.80;99.90
45012;DHT22;63444;48.148;11.542;2024-03-08T13:26:12;9.80;99.90
45012;DHT22;63444;48.148;11.542;2024-03-08T13:28:50;9.80;99.90
45012;DHT22;63444;48.148;11.542;2024-03-08T13:31:20;9.80;99.90
45012;DHT22;63444;48.148;11.542;2024-03-08T13:33:45;9.80;99.90
45012;DHT22;63444;48.148;11.542;2024-03-08T13:36:12;9.80;99.90
45012;DHT22;63444;48.148;11.542;2024-03-08T13:38:45;9.90;99.90
45012;DHT22;63444;48.148;11.542;2024-03-08T13:41:12;9.80;99.90
45012;DHT22;63444;48.148;11.542;2024-03-08T13:43:41;9.80;99.90
45012;DHT22;63444;48.148;11.542;2024-03-08T13:46:06;9.80;99.90
45012;DHT22;63444;48.148;11.542;2024-03-08T13:48:33;9.90;99.90
45012;DHT22;63444;48.148;11.542;2024-03-08T13:50:59;9.90;99.90
45012;DHT22;63444;48.148;11.542;2024-03-08T13:53:26;9.90;99.90
45012;DHT22;63444;48.148;11.542;2024-03-08T13:55:51;9.90;99.90
45012;DHT22;63444;48.148;11.542;2024-03-08T13:58:17;10.00;99.90
45012;DHT22;63444;48.148;11.542;2024-03-08T14:00:43;10.00;99.90
45012;DHT22;63444;48.148;11.542;2024-03-08T14:03:11;9.90;99.90
45012;DHT22;63444;48.148;11.542;2024-03-08T14:05:41;9.90;99.90
45012;DHT22;63444;48.148;11.542;2024-03-08T14:08:11;9.90;99.90
45012;DHT22;63444;48.148;11.542;2024-03-08T14:10:38;9.80;99.90
45012;DHT22;63444;48.148;11.542;2024-03-08T14:13:04;9.80;99.90
45012;DHT22;63444;48.148;11.542;2024-03-08T14:15:33;9.80;99.90
45012;DHT22;63444;48.148;11.542;2024-03-08T14:17:59;9.80;99.90
45012;DHT22;63444;48.148;11.542;2024-03-08T14:20:25;9.80;99.90
45012;DHT22;63444;48.148;11.542;2024-03-08T14:22:54;9.80;99.90
45012;DHT22;63444;48.148;11.542;2024-03-08T14:25:21;9.80;99.90
45012;DHT22;63444;48.148;11.542;2024-03-08T14:27:53;9.80;99.90
45012;DHT22;63444;48.148;11.542;2024-03-08T14:30:20;9.80;99.90
45012;DHT22;63444;48.148;11.542;2024-03-08T14:33:16;9.80;99.90
45012;DHT22;63444;48.148;11.542;2024-03-08T14:35:42;9.80;99.90
45012;DHT22;63444;48.148;11.542;2024-03-08T14:38:09;9.80;99.90
45012;DHT22;63444;48.148;11.542;2024-03-08T14:40:36;9.80;99.90
45012;DHT22;63444;48.148;11.542;2024-03-08T14:43:02;9.80;99.90
45012;DHT22;63444;48.148;11.542;2024-03-08T14:45:28;9.80;99.90
45012;DHT22;63444;48.148;11.542;2024-03-08T14:47:54;9.80;99.90
45012;DHT22;63444;48.148;11.542;2024-03-08T14:50:21;9.80;99.90
45012;DHT22;63444;48.148;11.542;2024-03-08T14:52:48;9.80;99.90
45012;DHT22;63444;48.148;11.542;2024-03-08T14:55:15;9.70;99.90
45012;DHT22;63444;48.148;11.542;2024-03-08T14:57:42;9.70;99.90
45012;DHT22;63444;48.148;11.542;2024-03-08T15:00:11;9.70;99.90
45012;DHT22;63444;48.148;11.542;2024-03-08T15:02:55;9.70;99.90
45012;DHT22;63444;48.148;11.542;2024-03-08T15:05:22;9.70;99.90
45012;DHT22;63444;48.148;11.542;2024-03-08T15:07:52;9.70;99.90
45012;DHT22;63444;48.148;11.542;2024-03-08T15:10:18;9.70;99.90
45012;DHT22;63444;48.148;11.542;2024-03-08T15:12:46;9.70;99.90
45012;DHT22;63444;48.148;11.542;2024-03-08T15:15:12;9.80;99.90
45012;DHT22;63444;48.148;11.542;2024-03-08T15:17:39;9.70;99.90
45012;DHT22;63444;48.148;11.542;2024-03-08T15:20:06;9.70;99.90
45012;DHT22;63444;48.148;11.542;2024-03-08T15:22:41;9.70;99.90
45012;DHT22;63444;48.148;11.542;2024-03-08T15:25:07;9.70;99.90
45012;DHT22;63444;48.148;11.542;2024-03-08T15:27:33;9.80;99.90
45012;DHT22;63444;48.148;11.542;2024-03-08T15:30:04;9.70;99.90
45012;DHT22;63444;48.148;11.542;2024-03-08T15:32:33;9.70;99.90
45012;DHT22;63444;48.148;11.542;2024-03-08T15:34:58;9.70;99.90
45012;DHT22;63444;48.148;11.542;2024-03-08T15:37:24;9.70;99.90
45012;DHT22;63444;48.148;11.542;2024-03-08T15:39:51;9.70;99.90